sensor_id;sensor_type;location;lat;lon;timestamp;temperature;humidity
52889;DHT22;41413;52.770;6.892;2022-10-22T00:01:37;13.40;99.90
52889;DHT22;41413;52.770;6.892;2022-10-22T00:04:05;13.30;99.90
52889;DHT22;41413;52.770;6.892;2022-10-22T00:06:32;13.30;99.90
52889;DHT22;41413;52.770;6.892;2022-10-22T00:08:59;13.20;99.90
52889;DHT22;41413;52.770;6.892;2022-10-22T00:11:26;13.20;99.90
52889;DHT22;41413;52.770;6.892;2022-10-22T00:13:52;13.10;99.90
52889;DHT22;41413;52.770;6.892;2022-10-22T00:16:19;13.10;99.90
52889;DHT22;41413;52.770;6.892;2022-10-22T00:18:46;13.10;99.90
52889;DHT22;41413;52.770;6.892;2022-10-22T00:21:13;13.10;99.90
52889;DHT22;41413;52.770;6.892;2022-10-22T00:23:41;13.10;99.90
52889;DHT22;41413;52.770;6.892;2022-10-22T00:26:08;13.10;99.90
52889;DHT22;41413;52.770;6.892;2022-10-22T00:28:35;13.10;99.90
52889;DHT22;41413;52.770;6.892;2022-10-22T00:31:02;13.00;99.90
52889;DHT22;41413;52.770;6.892;2022-10-22T00:33:28;12.90;99.90
52889;DHT22;41413;52.770;6.892;2022-10-22T00:35:55;13.00;99.90
52889;DHT22;41413;52.770;6.892;2022-10-22T00:38:22;13.00;99.90
52889;DHT22;41413;52.770;6.892;2022-10-22T00:40:49;13.00;99.90
52889;DHT22;41413;52.770;6.892;2022-10-22T00:43:17;13.00;99.90
52889;DHT22;41413;52.770;6.892;2022-10-22T00:45:45;12.90;99.90
52889;DHT22;41413;52.770;6.892;2022-10-22T00:48:13;12.90;99.90
52889;DHT22;41413;52.770;6.892;2022-10-22T00:53:19;12.90;99.90
52889;DHT22;41413;52.770;6.892;2022-10-22T00:55:50;12.90;99.90
52889;DHT22;41413;52.770;6.892;2022-10-22T00:58:19;12.90;99.90
52889;DHT22;41413;52.770;6.892;2022-10-22T01:00:47;12.90;99.90
52889;DHT22;41413;52.770;6.892;2022-10-22T01:03:14;12.90;99.90
52889;DHT22;41413;52.770;6.892;2022-10-22T01:06:02;12.90;99.90
52889;DHT22;41413;52.770;6.892;2022-10-22T01:11:07;12.90;99.90
52889;DHT22;41413;52.770;6.892;2022-10-22T01:13:50;12.80;99.90
52889;DHT22;41413;52.770;6.892;2022-10-22T01:16:35;12.80;99.90
52889;DHT22;41413;52.770;6.892;2022-10-22T01:22:06;12.80;99.90
52889;DHT22;41413;52.770;6.892;2022-10-22T01:30:43;12.70;99.90
52889;DHT22;41413;52.770;6.892;2022-10-22T01:33:13;12.70;99.90
52889;DHT22;41413;52.770;6.892;2022-10-22T01:35:42;12.60;99.90
52889;DHT22;41413;52.770;6.892;2022-10-22T01:38:16;12.60;99.90
52889;DHT22;41413;52.770;6.892;2022-10-22T01:40:45;12.60;99.90
52889;DHT22;41413;52.770;6.892;2022-10-22T01:43:13;12.60;99.90
52889;DHT22;41413;52.770;6.892;2022-10-22T01:45:46;12.60;99.90
52889;DHT22;41413;52.770;6.892;2022-10-22T01:48:21;12.60;99.90
52889;DHT22;41413;52.770;6.892;2022-10-22T01:53:52;12.50;99.90
52889;DHT22;41413;52.770;6.892;2022-10-22T02:04:29;12.60;99.90
52889;DHT22;41413;52.770;6.892;2022-10-22T02:07:02;12.60;99.90
52889;DHT22;41413;52.770;6.892;2022-10-22T02:09:31;12.60;99.90
52889;DHT22;41413;52.770;6.892;2022-10-22T02:12:03;12.60;99.90
52889;DHT22;41413;52.770;6.892;2022-10-22T02:14:33;12.60;99.90
52889;DHT22;41413;52.770;6.892;2022-10-22T02:17:00;12.60;99.90
52889;DHT22;41413;52.770;6.892;2022-10-22T02:19:35;12.60;99.90
52889;DHT22;41413;52.770;6.892;2022-10-22T02:22:03;12.60;99.90
52889;DHT22;41413;52.770;6.892;2022-10-22T02:24:30;12.60;99.90
52889;DHT22;41413;52.770;6.892;2022-10-22T02:27:50;12.70;99.90
52889;DHT22;41413;52.770;6.892;2022-10-22T02:30:07;12.70;99.90
52889;DHT22;41413;52.770;6.892;2022-10-22T02:32:41;12.60;99.90
52889;DHT22;41413;52.770;6.892;2022-10-22T02:35:13;12.60;99.90
52889;DHT22;41413;52.770;6.892;2022-10-22T02:37:40;12.60;99.90
52889;DHT22;41413;52.770;6.892;2022-10-22T02:40:08;12.60;99.90
52889;DHT22;41413;52.770;6.892;2022-10-22T02:42:37;12.60;99.90
52889;DHT22;41413;52.770;6.892;2022-10-22T02:45:05;12.60;99.90
52889;DHT22;41413;52.770;6.892;2022-10-22T02:47:32;12.50;99.90
52889;DHT22;41413;52.770;6.892;2022-10-22T02:49:59;12.50;99.90
52889;DHT22;41413;52.770;6.892;2022-10-22T02:52:25;12.50;99.90
52889;DHT22;41413;52.770;6.892;2022-10-22T02:54:52;12.50;99.90
52889;DHT22;41413;52.770;6.892;2022-10-22T02:57:18;12.50;99.90
52889;DHT22;41413;52.770;6.892;2022-10-22T02:59:46;12.50;99.90
52889;DHT22;41413;52.770;6.892;2022-10-22T03:02:13;12.50;99.90
52889;DHT22;41413;52.770;6.892;2022-10-22T03:04:39;12.50;99.90
52889;DHT22;41413;52.770;6.892;2022-10-22T03:07:06;12.40;99.90
52889;DHT22;41413;52.770;6.892;2022-10-22T03:09:32;12.40;99.90
52889;DHT22;41413;52.770;6.892;2022-10-22T03:11:59;12.40;99.90
52889;DHT22;41413;52.770;6.892;2022-10-22T03:14:26;12.30;99.90
52889;DHT22;41413;52.770;6.892;2022-10-22T03:16:52;12.40;99.90
52889;DHT22;41413;52.770;6.892;2022-10-22T03:19:19;12.30;99.90
52889;DHT22;41413;52.770;6.892;2022-10-22T03:22:04;12.30;99.90
52889;DHT22;41413;52.770;6.892;2022-10-22T03:24:38;12.30;99.90
52889;DHT22;41413;52.770;6.892;2022-10-22T03:27:05;12.20;99.90
52889;DHT22;41413;52.770;6.892;2022-10-22T03:29:34;12.20;99.90
52889;DHT22;41413;52.770;6.892;2022-10-22T03:32:01;12.20;99.90
52889;DHT22;41413;52.770;6.892;2022-10-22T03:34:28;12.10;99.90
52889;DHT22;41413;52.770;6.892;2022-10-22T03:36:56;12.10;99.90
52889;DHT22;41413;52.770;6.892;2022-10-22T03:39:25;12.10;99.90
52889;DHT22;41413;52.770;6.892;2022-10-22T03:41:52;12.10;99.90
52889;DHT22;41413;52.770;6.892;2022-10-22T03:44:19;12.00;99.90
52889;DHT22;41413;52.770;6.892;2022-10-22T03:46:47;12.00;99.90
52889;DHT22;41413;52.770;6.892;2022-10-22T03:49:14;12.10;99.90
52889;DHT22;41413;52.770;6.892;2022-10-22T03:51:40;12.10;99.90
52889;DHT22;41413;52.770;6.892;2022-10-22T03:54:07;12.00;99.90
52889;DHT22;41413;52.770;6.892;2022-10-22T03:56:34;12.00;99.90
52889;DHT22;41413;52.770;6.892;2022-10-22T03:59:01;11.90;99.90
52889;DHT22;41413;52.770;6.892;2022-10-22T04:01:28;11.90;99.90
52889;DHT22;41413;52.770;6.892;2022-10-22T04:03:56;11.90;99.90
52889;DHT22;41413;52.770;6.892;2022-10-22T04:06:23;11.90;99.90
52889;DHT22;41413;52.770;6.892;2022-10-22T04:08:50;11.90;99.90
52889;DHT22;41413;52.770;6.892;2022-10-22T04:11:17;11.90;99.90
52889;DHT22;41413;52.770;6.892;2022-10-22T04:13:44;11.90;99.90
52889;DHT22;41413;52.770;6.892;2022-10-22T04:18:41;12.00;99.90
52889;DHT22;41413;52.770;6.892;2022-10-22T04:21:10;12.00;99.90
52889;DHT22;41413;52.770;6.892;2022-10-22T04:23:37;12.00;99.90
52889;DHT22;41413;52.770;6.892;2022-10-22T04:26:06;11.90;99.90
52889;DHT22;41413;52.770;6.892;2022-10-22T04:28:33;11.90;99.90
52889;DHT22;41413;52.770;6.892;2022-10-22T04:31:06;11.90;99.90
52889;DHT22;41413;52.770;6.892;2022-10-22T04:33:33;11.90;99.90
52889;DHT22;41413;52.770;6.892;2022-10-22T04:36:05;11.90;99.90
52889;DHT22;41413;52.770;6.892;2022-10-22T04:38:32;11.80;99.90
52889;DHT22;41413;52.770;6.892;2022-10-22T04:41:10;11.70;99.90
52889;DHT22;41413;52.770;6.892;2022-10-22T04:43:38;11.60;99.90
52889;DHT22;41413;52.770;6.892;2022-10-22T04:46:05;11.50;99.90
52889;DHT22;41413;52.770;6.892;2022-10-22T04:48:38;11.50;99.90
52889;DHT22;41413;52.770;6.892;2022-10-22T04:51:06;11.50;99.90
52889;DHT22;41413;52.770;6.892;2022-10-22T04:53:34;11.50;99.90
52889;DHT22;41413;52.770;6.892;2022-10-22T04:56:09;11.50;99.90
52889;DHT22;41413;52.770;6.892;2022-10-22T04:58:37;11.50;99.90
52889;DHT22;41413;52.770;6.892;2022-10-22T05:01:15;11.50;99.90
52889;DHT22;41413;52.770;6.892;2022-10-22T05:03:43;11.50;99.90
52889;DHT22;41413;52.770;6.892;2022-10-22T05:06:10;11.50;99.90
52889;DHT22;41413;52.770;6.892;2022-10-22T05:08:39;11.50;99.90
52889;DHT22;41413;52.770;6.892;2022-10-22T05:11:17;11.40;99.90
52889;DHT22;41413;52.770;6.892;2022-10-22T05:13:45;11.40;99.90
52889;DHT22;41413;52.770;6.892;2022-10-22T05:16:12;11.40;99.90
52889;DHT22;41413;52.770;6.892;2022-10-22T05:18:41;11.40;99.90
52889;DHT22;41413;52.770;6.892;2022-10-22T05:21:11;11.30;99.90
52889;DHT22;41413;52.770;6.892;2022-10-22T05:23:38;11.30;99.90
52889;DHT22;41413;52.770;6.892;2022-10-22T05:26:06;11.30;99.90
52889;DHT22;41413;52.770;6.892;2022-10-22T05:28:34;11.40;99.90
52889;DHT22;41413;52.770;6.892;2022-10-22T05:31:01;11.30;99.90
52889;DHT22;41413;52.770;6.892;2022-10-22T05:33:29;11.30;99.90
52889;DHT22;41413;52.770;6.892;2022-10-22T05:35:56;11.30;99.90
52889;DHT22;41413;52.770;6.892;2022-10-22T05:38:23;11.40;99.90
52889;DHT22;41413;52.770;6.892;2022-10-22T05:41:07;11.40;99.90
52889;DHT22;41413;52.770;6.892;2022-10-22T05:43:34;11.50;99.90
52889;DHT22;41413;52.770;6.892;2022-10-22T05:46:04;11.40;99.90
52889;DHT22;41413;52.770;6.892;2022-10-22T05:48:32;11.50;99.90
52889;DHT22;41413;52.770;6.892;2022-10-22T05:51:06;11.40;99.90
52889;DHT22;41413;52.770;6.892;2022-10-22T05:53:34;11.50;99.90
52889;DHT22;41413;52.770;6.892;2022-10-22T05:56:03;11.50;99.90
52889;DHT22;41413;52.770;6.892;2022-10-22T05:58:30;11.60;99.90
52889;DHT22;41413;52.770;6.892;2022-10-22T06:01:05;11.60;99.90
52889;DHT22;41413;52.770;6.892;2022-10-22T06:03:32;11.70;99.90
52889;DHT22;41413;52.770;6.892;2022-10-22T06:06:01;11.70;99.90
52889;DHT22;41413;52.770;6.892;2022-10-22T06:08:28;11.70;99.90
52889;DHT22;41413;52.770;6.892;2022-10-22T06:10:56;11.70;99.90
52889;DHT22;41413;52.770;6.892;2022-10-22T06:13:23;11.70;99.90
52889;DHT22;41413;52.770;6.892;2022-10-22T06:15:50;11.70;99.90
52889;DHT22;41413;52.770;6.892;2022-10-22T06:18:18;11.70;99.90
52889;DHT22;41413;52.770;6.892;2022-10-22T06:20:45;11.80;99.90
52889;DHT22;41413;52.770;6.892;2022-10-22T06:23:13;11.80;99.90
52889;DHT22;41413;52.770;6.892;2022-10-22T06:25:41;11.80;99.90
52889;DHT22;41413;52.770;6.892;2022-10-22T06:28:08;11.90;99.90
52889;DHT22;41413;52.770;6.892;2022-10-22T06:30:37;11.90;99.90
52889;DHT22;41413;52.770;6.892;2022-10-22T06:33:09;11.90;99.90
52889;DHT22;41413;52.770;6.892;2022-10-22T06:35:36;11.90;99.90
52889;DHT22;41413;52.770;6.892;2022-10-22T06:38:02;12.10;99.90
52889;DHT22;41413;52.770;6.892;2022-10-22T06:40:29;12.10;99.90
52889;DHT22;41413;52.770;6.892;2022-10-22T06:42:58;12.10;99.90
52889;DHT22;41413;52.770;6.892;2022-10-22T06:45:25;12.20;99.90
52889;DHT22;41413;52.770;6.892;2022-10-22T06:47:51;12.20;99.90
52889;DHT22;41413;52.770;6.892;2022-10-22T06:50:19;12.30;99.90
52889;DHT22;41413;52.770;6.892;2022-10-22T06:52:45;12.30;99.90
52889;DHT22;41413;52.770;6.892;2022-10-22T06:55:12;12.40;99.90
52889;DHT22;41413;52.770;6.892;2022-10-22T06:57:39;12.40;99.90
52889;DHT22;41413;52.770;6.892;2022-10-22T07:00:06;12.40;99.90
52889;DHT22;41413;52.770;6.892;2022-10-22T07:02:33;12.50;99.90
52889;DHT22;41413;52.770;6.892;2022-10-22T07:05:00;12.60;99.90
52889;DHT22;41413;52.770;6.892;2022-10-22T07:07:27;12.60;99.90
52889;DHT22;41413;52.770;6.892;2022-10-22T07:09:53;12.60;99.90
52889;DHT22;41413;52.770;6.892;2022-10-22T07:12:20;12.70;99.90
52889;DHT22;41413;52.770;6.892;2022-10-22T07:14:48;12.80;99.90
52889;DHT22;41413;52.770;6.892;2022-10-22T07:17:15;12.80;99.90
52889;DHT22;41413;52.770;6.892;2022-10-22T07:19:41;12.90;99.90
52889;DHT22;41413;52.770;6.892;2022-10-22T07:22:08;12.90;99.90
52889;DHT22;41413;52.770;6.892;2022-10-22T07:24:35;13.00;99.90
52889;DHT22;41413;52.770;6.892;2022-10-22T07:27:01;13.10;99.90
52889;DHT22;41413;52.770;6.892;2022-10-22T07:29:29;13.10;99.90
52889;DHT22;41413;52.770;6.892;2022-10-22T07:31:55;13.20;99.90
52889;DHT22;41413;52.770;6.892;2022-10-22T07:34:22;13.30;99.90
52889;DHT22;41413;52.770;6.892;2022-10-22T07:36:49;13.40;99.90
52889;DHT22;41413;52.770;6.892;2022-10-22T07:39:15;13.50;99.90
52889;DHT22;41413;52.770;6.892;2022-10-22T07:41:42;13.70;99.90
52889;DHT22;41413;52.770;6.892;2022-10-22T07:44:08;13.80;99.90
52889;DHT22;41413;52.770;6.892;2022-10-22T07:46:35;14.00;99.90
52889;DHT22;41413;52.770;6.892;2022-10-22T07:49:02;14.20;99.90
52889;DHT22;41413;52.770;6.892;2022-10-22T07:51:28;14.30;99.90
52889;DHT22;41413;52.770;6.892;2022-10-22T07:53:55;14.50;99.90
52889;DHT22;41413;52.770;6.892;2022-10-22T07:56:22;15.10;99.90
52889;DHT22;41413;52.770;6.892;2022-10-22T07:58:48;15.20;99.90
52889;DHT22;41413;52.770;6.892;2022-10-22T08:01:15;15.40;99.90
52889;DHT22;41413;52.770;6.892;2022-10-22T08:03:42;15.70;99.90
52889;DHT22;41413;52.770;6.892;2022-10-22T08:06:12;15.60;99.90
52889;DHT22;41413;52.770;6.892;2022-10-22T08:08:40;15.50;99.90
52889;DHT22;41413;52.770;6.892;2022-10-22T08:11:09;15.40;99.90
52889;DHT22;41413;52.770;6.892;2022-10-22T08:13:35;15.20;99.90
52889;DHT22;41413;52.770;6.892;2022-10-22T08:16:08;15.00;99.90
52889;DHT22;41413;52.770;6.892;2022-10-22T08:18:34;14.90;99.90
52889;DHT22;41413;52.770;6.892;2022-10-22T08:21:01;14.70;99.90
52889;DHT22;41413;52.770;6.892;2022-10-22T08:23:28;14.80;99.90
52889;DHT22;41413;52.770;6.892;2022-10-22T08:25:56;15.00;99.90
52889;DHT22;41413;52.770;6.892;2022-10-22T08:28:22;15.20;99.90
52889;DHT22;41413;52.770;6.892;2022-10-22T08:30:49;15.40;99.90
52889;DHT22;41413;52.770;6.892;2022-10-22T08:33:16;15.60;99.90
52889;DHT22;41413;52.770;6.892;2022-10-22T08:35:47;15.70;99.90
52889;DHT22;41413;52.770;6.892;2022-10-22T08:38:14;15.60;99.90
52889;DHT22;41413;52.770;6.892;2022-10-22T08:40:42;15.60;99.90
52889;DHT22;41413;52.770;6.892;2022-10-22T08:45:55;15.20;99.90
52889;DHT22;41413;52.770;6.892;2022-10-22T08:50:55;15.90;99.90
52889;DHT22;41413;52.770;6.892;2022-10-22T08:55:53;17.40;99.90
52889;DHT22;41413;52.770;6.892;2022-10-22T09:01:13;18.30;99.90
52889;DHT22;41413;52.770;6.892;2022-10-22T09:03:57;18.50;99.90
52889;DHT22;41413;52.770;6.892;2022-10-22T09:06:29;18.90;99.90
52889;DHT22;41413;52.770;6.892;2022-10-22T09:08:58;18.90;99.90
52889;DHT22;41413;52.770;6.892;2022-10-22T09:11:33;19.00;99.90
52889;DHT22;41413;52.770;6.892;2022-10-22T09:14:02;18.90;99.90
52889;DHT22;41413;52.770;6.892;2022-10-22T09:19:32;18.90;99.90
52889;DHT22;41413;52.770;6.892;2022-10-22T09:24:47;18.30;99.90
52889;DHT22;41413;52.770;6.892;2022-10-22T09:27:16;18.40;99.90
52889;DHT22;41413;52.770;6.892;2022-10-22T09:29:45;18.30;99.90
52889;DHT22;41413;52.770;6.892;2022-10-22T09:32:14;17.80;99.90
52889;DHT22;41413;52.770;6.892;2022-10-22T09:34:46;17.70;99.90
52889;DHT22;41413;52.770;6.892;2022-10-22T09:37:17;17.60;99.90
52889;DHT22;41413;52.770;6.892;2022-10-22T09:39:47;17.60;99.90
52889;DHT22;41413;52.770;6.892;2022-10-22T09:42:17;17.40;99.90
52889;DHT22;41413;52.770;6.892;2022-10-22T09:44:54;17.20;99.90
52889;DHT22;41413;52.770;6.892;2022-10-22T09:50:19;16.80;99.90
52889;DHT22;41413;52.770;6.892;2022-10-22T09:53:17;16.60;99.90
52889;DHT22;41413;52.770;6.892;2022-10-22T09:55:53;16.50;99.90
52889;DHT22;41413;52.770;6.892;2022-10-22T09:58:26;16.30;99.90
52889;DHT22;41413;52.770;6.892;2022-10-22T10:00:56;16.20;99.90
52889;DHT22;41413;52.770;6.892;2022-10-22T10:03:26;16.20;99.90
52889;DHT22;41413;52.770;6.892;2022-10-22T10:05:57;16.10;99.90
52889;DHT22;41413;52.770;6.892;2022-10-22T10:08:31;16.00;99.90
52889;DHT22;41413;52.770;6.892;2022-10-22T10:13:53;16.00;99.90
52889;DHT22;41413;52.770;6.892;2022-10-22T10:16:34;16.00;99.90
52889;DHT22;41413;52.770;6.892;2022-10-22T10:19:16;16.00;99.90
52889;DHT22;41413;52.770;6.892;2022-10-22T10:21:53;15.90;99.90
52889;DHT22;41413;52.770;6.892;2022-10-22T10:27:21;15.80;99.90
52889;DHT22;41413;52.770;6.892;2022-10-22T10:35:59;15.70;99.90
52889;DHT22;41413;52.770;6.892;2022-10-22T10:39:02;15.70;99.90
52889;DHT22;41413;52.770;6.892;2022-10-22T10:49:31;15.60;99.90
52889;DHT22;41413;52.770;6.892;2022-10-22T10:55:17;15.70;99.90
52889;DHT22;41413;52.770;6.892;2022-10-22T10:58:20;15.70;99.90
52889;DHT22;41413;52.770;6.892;2022-10-22T11:01:23;15.80;99.90
52889;DHT22;41413;52.770;6.892;2022-10-22T11:07:03;15.90;99.90
52889;DHT22;41413;52.770;6.892;2022-10-22T11:09:59;16.00;99.90
52889;DHT22;41413;52.770;6.892;2022-10-22T11:12:32;15.90;99.90
52889;DHT22;41413;52.770;6.892;2022-10-22T11:15:24;15.90;99.90
52889;DHT22;41413;52.770;6.892;2022-10-22T11:18:10;15.90;99.90
52889;DHT22;41413;52.770;6.892;2022-10-22T11:20:47;15.80;99.90
52889;DHT22;41413;52.770;6.892;2022-10-22T11:23:21;15.70;99.90
52889;DHT22;41413;52.770;6.892;2022-10-22T11:25:50;15.60;99.90
52889;DHT22;41413;52.770;6.892;2022-10-22T11:28:23;15.50;99.90
52889;DHT22;41413;52.770;6.892;2022-10-22T11:31:02;15.60;99.90
52889;DHT22;41413;52.770;6.892;2022-10-22T11:34:03;15.60;99.90
52889;DHT22;41413;52.770;6.892;2022-10-22T11:36:53;15.70;99.90
52889;DHT22;41413;52.770;6.892;2022-10-22T11:39:42;15.60;99.90
52889;DHT22;41413;52.770;6.892;2022-10-22T11:42:15;15.60;99.90
52889;DHT22;41413;52.770;6.892;2022-10-22T11:45:05;15.70;99.90
52889;DHT22;41413;52.770;6.892;2022-10-22T11:47:40;15.70;99.90
52889;DHT22;41413;52.770;6.892;2022-10-22T11:50:23;15.70;99.90
52889;DHT22;41413;52.770;6.892;2022-10-22T11:53:05;15.70;99.90
52889;DHT22;41413;52.770;6.892;2022-10-22T11:55:47;15.80;99.90
52889;DHT22;41413;52.770;6.892;2022-10-22T12:16:56;15.90;99.90
52889;DHT22;41413;52.770;6.892;2022-10-22T12:22:16;16.10;99.90
52889;DHT22;41413;52.770;6.892;2022-10-22T12:24:54;16.20;99.90
52889;DHT22;41413;52.770;6.892;2022-10-22T12:27:33;16.40;99.90
52889;DHT22;41413;52.770;6.892;2022-10-22T12:30:02;16.50;99.90
52889;DHT22;41413;52.770;6.892;2022-10-22T12:32:38;16.60;99.90
52889;DHT22;41413;52.770;6.892;2022-10-22T12:35:10;16.60;99.90
52889;DHT22;41413;52.770;6.892;2022-10-22T12:37:40;16.70;99.90
52889;DHT22;41413;52.770;6.892;2022-10-22T12:40:22;16.60;99.90
52889;DHT22;41413;52.770;6.892;2022-10-22T12:42:54;16.70;99.90
52889;DHT22;41413;52.770;6.892;2022-10-22T12:45:22;16.80;99.90
52889;DHT22;41413;52.770;6.892;2022-10-22T12:47:56;16.80;99.90
52889;DHT22;41413;52.770;6.892;2022-10-22T12:50:35;16.90;99.90
52889;DHT22;41413;52.770;6.892;2022-10-22T12:53:06;16.80;99.90
52889;DHT22;41413;52.770;6.892;2022-10-22T12:55:38;16.70;99.90
52889;DHT22;41413;52.770;6.892;2022-10-22T12:58:06;16.60;99.90
52889;DHT22;41413;52.770;6.892;2022-10-22T13:00:34;16.60;99.90
52889;DHT22;41413;52.770;6.892;2022-10-22T13:03:05;16.60;99.90
52889;DHT22;41413;52.770;6.892;2022-10-22T13:05:33;16.60;99.90
52889;DHT22;41413;52.770;6.892;2022-10-22T13:08:15;16.60;99.90
52889;DHT22;41413;52.770;6.892;2022-10-22T13:10:50;16.50;99.90
52889;DHT22;41413;52.770;6.892;2022-10-22T13:16:20;16.50;99.90
52889;DHT22;41413;52.770;6.892;2022-10-22T13:18:50;16.60;99.90
52889;DHT22;41413;52.770;6.892;2022-10-22T13:21:24;16.50;99.90
52889;DHT22;41413;52.770;6.892;2022-10-22T13:23:56;16.60;99.90
52889;DHT22;41413;52.770;6.892;2022-10-22T13:26:29;16.60;99.90
52889;DHT22;41413;52.770;6.892;2022-10-22T13:28:57;16.60;99.90
52889;DHT22;41413;52.770;6.892;2022-10-22T13:31:27;16.70;99.90
52889;DHT22;41413;52.770;6.892;2022-10-22T13:33:57;16.70;99.90
52889;DHT22;41413;52.770;6.892;2022-10-22T13:36:24;16.70;99.90
52889;DHT22;41413;52.770;6.892;2022-10-22T13:38:53;16.60;99.90
52889;DHT22;41413;52.770;6.892;2022-10-22T13:41:26;16.60;99.90
52889;DHT22;41413;52.770;6.892;2022-10-22T13:43:53;16.60;99.90
52889;DHT22;41413;52.770;6.892;2022-10-22T13:46:21;16.60;99.90
52889;DHT22;41413;52.770;6.892;2022-10-22T13:48:51;16.50;99.90
52889;DHT22;41413;52.770;6.892;2022-10-22T13:51:21;16.60;99.90
52889;DHT22;41413;52.770;6.892;2022-10-22T13:53:50;16.70;99.90
52889;DHT22;41413;52.770;6.892;2022-10-22T13:56:19;16.80;99.90
52889;DHT22;41413;52.770;6.892;2022-10-22T13:58:47;16.70;99.90
52889;DHT22;41413;52.770;6.892;2022-10-22T14:01:22;16.70;99.90
52889;DHT22;41413;52.770;6.892;2022-10-22T14:03:50;16.80;99.90
52889;DHT22;41413;52.770;6.892;2022-10-22T14:06:19;17.00;99.90
52889;DHT22;41413;52.770;6.892;2022-10-22T14:08:57;17.00;99.90
52889;DHT22;41413;52.770;6.892;2022-10-22T14:11:25;17.00;99.90
52889;DHT22;41413;52.770;6.892;2022-10-22T14:13:57;17.10;99.90
52889;DHT22;41413;52.770;6.892;2022-10-22T14:16:25;17.10;99.90
52889;DHT22;41413;52.770;6.892;2022-10-22T14:18:53;17.10;99.90
52889;DHT22;41413;52.770;6.892;2022-10-22T14:21:21;17.00;99.90
52889;DHT22;41413;52.770;6.892;2022-10-22T14:23:48;17.00;99.90
52889;DHT22;41413;52.770;6.892;2022-10-22T14:26:25;16.90;99.90
52889;DHT22;41413;52.770;6.892;2022-10-22T14:28:53;16.90;99.90
52889;DHT22;41413;52.770;6.892;2022-10-22T14:31:38;16.80;99.90
52889;DHT22;41413;52.770;6.892;2022-10-22T14:34:08;16.90;99.90
52889;DHT22;41413;52.770;6.892;2022-10-22T14:36:35;17.00;99.90
52889;DHT22;41413;52.770;6.892;2022-10-22T14:39:02;17.10;99.90
52889;DHT22;41413;52.770;6.892;2022-10-22T14:41:29;17.20;99.90
52889;DHT22;41413;52.770;6.892;2022-10-22T14:43:56;17.20;99.90
52889;DHT22;41413;52.770;6.892;2022-10-22T14:46:24;17.30;99.90
52889;DHT22;41413;52.770;6.892;2022-10-22T14:48:51;17.30;99.90
52889;DHT22;41413;52.770;6.892;2022-10-22T14:51:19;17.30;99.90
52889;DHT22;41413;52.770;6.892;2022-10-22T14:53:46;17.10;99.90
52889;DHT22;41413;52.770;6.892;2022-10-22T14:56:15;17.10;99.90
52889;DHT22;41413;52.770;6.892;2022-10-22T14:58:42;17.10;99.90
52889;DHT22;41413;52.770;6.892;2022-10-22T15:01:09;17.10;99.90
52889;DHT22;41413;52.770;6.892;2022-10-22T15:03:35;17.00;99.90
52889;DHT22;41413;52.770;6.892;2022-10-22T15:06:03;17.00;99.90
52889;DHT22;41413;52.770;6.892;2022-10-22T15:08:30;17.00;99.90
52889;DHT22;41413;52.770;6.892;2022-10-22T15:11:02;17.00;99.90
52889;DHT22;41413;52.770;6.892;2022-10-22T15:13:29;16.90;99.90
52889;DHT22;41413;52.770;6.892;2022-10-22T15:15:57;16.90;99.90
52889;DHT22;41413;52.770;6.892;2022-10-22T15:18:25;16.80;99.90
52889;DHT22;41413;52.770;6.892;2022-10-22T15:20:59;16.70;99.90
52889;DHT22;41413;52.770;6.892;2022-10-22T15:23:26;16.70;99.90
52889;DHT22;41413;52.770;6.892;2022-10-22T15:25:54;16.60;99.90
52889;DHT22;41413;52.770;6.892;2022-10-22T15:28:21;16.50;99.90
52889;DHT22;41413;52.770;6.892;2022-10-22T15:30:52;16.30;99.90
52889;DHT22;41413;52.770;6.892;2022-10-22T15:33:19;16.40;99.90
52889;DHT22;41413;52.770;6.892;2022-10-22T15:35:46;16.30;99.90
52889;DHT22;41413;52.770;6.892;2022-10-22T15:38:12;16.20;99.90
52889;DHT22;41413;52.770;6.892;2022-10-22T15:40:39;16.20;99.90
52889;DHT22;41413;52.770;6.892;2022-10-22T15:43:06;16.10;99.90
52889;DHT22;41413;52.770;6.892;2022-10-22T15:45:32;16.10;99.90
52889;DHT22;41413;52.770;6.892;2022-10-22T15:47:59;16.00;99.90
52889;DHT22;41413;52.770;6.892;2022-10-22T15:50:26;15.90;99.90
52889;DHT22;41413;52.770;6.892;2022-10-22T15:52:52;15.90;99.90
52889;DHT22;41413;52.770;6.892;2022-10-22T15:55:20;15.80;99.90
52889;DHT22;41413;52.770;6.892;2022-10-22T15:57:46;15.70;99.90
52889;DHT22;41413;52.770;6.892;2022-10-22T16:00:21;15.60;99.90
52889;DHT22;41413;52.770;6.892;2022-10-22T16:02:47;15.60;99.90
52889;DHT22;41413;52.770;6.892;2022-10-22T16:05:14;15.60;99.90
52889;DHT22;41413;52.770;6.892;2022-10-22T16:07:41;15.50;99.90
52889;DHT22;41413;52.770;6.892;2022-10-22T16:10:08;15.40;99.90
52889;DHT22;41413;52.770;6.892;2022-10-22T16:12:38;15.40;99.90
52889;DHT22;41413;52.770;6.892;2022-10-22T16:15:07;15.30;99.90
52889;DHT22;41413;52.770;6.892;2022-10-22T16:17:34;15.20;99.90
52889;DHT22;41413;52.770;6.892;2022-10-22T16:20:01;15.10;99.90
52889;DHT22;41413;52.770;6.892;2022-10-22T16:22:28;15.00;99.90
52889;DHT22;41413;52.770;6.892;2022-10-22T16:24:54;15.00;99.90
52889;DHT22;41413;52.770;6.892;2022-10-22T16:27:21;14.90;99.90
52889;DHT22;41413;52.770;6.892;2022-10-22T16:29:47;14.80;99.90
52889;DHT22;41413;52.770;6.892;2022-10-22T16:32:14;14.80;99.90
52889;DHT22;41413;52.770;6.892;2022-10-22T16:34:42;14.80;99.90
52889;DHT22;41413;52.770;6.892;2022-10-22T16:37:08;14.70;99.90
52889;DHT22;41413;52.770;6.892;2022-10-22T16:39:36;14.60;99.90
52889;DHT22;41413;52.770;6.892;2022-10-22T16:42:02;14.60;99.90
52889;DHT22;41413;52.770;6.892;2022-10-22T16:44:29;14.50;99.90
52889;DHT22;41413;52.770;6.892;2022-10-22T16:46:56;14.40;99.90
52889;DHT22;41413;52.770;6.892;2022-10-22T16:49:22;14.40;99.90
52889;DHT22;41413;52.770;6.892;2022-10-22T16:51:49;14.30;99.90
52889;DHT22;41413;52.770;6.892;2022-10-22T16:54:16;14.20;99.90
52889;DHT22;41413;52.770;6.892;2022-10-22T16:56:43;14.10;99.90
52889;DHT22;41413;52.770;6.892;2022-10-22T16:59:09;14.10;99.90
52889;DHT22;41413;52.770;6.892;2022-10-22T17:01:36;14.10;99.90
52889;DHT22;41413;52.770;6.892;2022-10-22T17:04:07;14.00;99.90
52889;DHT22;41413;52.770;6.892;2022-10-22T17:06:34;14.00;99.90
52889;DHT22;41413;52.770;6.892;2022-10-22T17:09:00;13.90;99.90
52889;DHT22;41413;52.770;6.892;2022-10-22T17:11:27;13.80;99.90
52889;DHT22;41413;52.770;6.892;2022-10-22T17:14:00;13.80;99.90
52889;DHT22;41413;52.770;6.892;2022-10-22T17:16:27;13.80;99.90
52889;DHT22;41413;52.770;6.892;2022-10-22T17:18:54;13.80;99.90
52889;DHT22;41413;52.770;6.892;2022-10-22T17:21:22;13.70;99.90
52889;DHT22;41413;52.770;6.892;2022-10-22T17:23:56;13.80;99.90
52889;DHT22;41413;52.770;6.892;2022-10-22T17:26:23;13.80;99.90